Terminal Aerodrome Forecast
Issued by NWS

Home | Current Version | Previous Version | Text Only | Print | Product List | Glossary On
Versions: 1 2 3 4 5 6 7 8 9 10 11 12
000
FTUS45 KTWC 191720
TAFOLS
TAF
KOLS 191720Z 1918/2018 20008KT P6SM SCT100 SCT250
     FM192000 22010G18KT P6SM SCT100 SCT250
     FM200200 18005KT P6SM FEW100 SCT250
     FM200500 VRB03KT P6SM BKN250=

USA.gov is the U.S. government's official web portal to all federal, state and local government web resources and services.